createdAt,value
2022-09-30T00:03:20.377Z,99586.17
2022-09-30T00:08:23.778Z,99590.13
2022-09-30T00:13:27.622Z,99586.48
2022-09-30T00:18:31.635Z,99587.17
2022-09-30T00:23:38.118Z,99587.45
2022-09-30T00:28:42.337Z,99593.52
2022-09-30T00:34:06.841Z,99603.79
2022-09-30T00:39:14.144Z,99608.42
2022-09-30T00:44:45.887Z,99611.77
2022-09-30T00:49:49.516Z,99616.02
2022-09-30T00:54:54.064Z,99623.15
2022-09-30T00:59:57.883Z,99626.20
2022-09-30T01:05:01.136Z,99626.35
2022-09-30T01:10:04.336Z,99634.63
2022-09-30T01:15:08.127Z,99633.88
2022-09-30T01:21:19.271Z,99631.86
2022-09-30T01:26:46.448Z,99634.71
2022-09-30T01:32:04.918Z,99632.48
2022-09-30T01:37:31.554Z,99629.52
2022-09-30T01:43:00.315Z,99627.33
2022-09-30T01:48:21.532Z,99629.30
2022-09-30T01:53:25.115Z,99625.95
2022-09-30T01:58:45.457Z,99619.18
2022-09-30T02:03:53.787Z,99623.61
2022-09-30T02:09:07.859Z,99618.41
2022-09-30T02:14:41.678Z,99626.77
2022-09-30T02:19:57.246Z,99627.27
2022-09-30T02:25:02.748Z,99624.30
2022-09-30T02:30:09.612Z,99618.63
2022-09-30T02:35:27.113Z,99615.97
2022-09-30T02:40:44.787Z,99617.17
2022-09-30T02:46:10.675Z,99617.54
2022-09-30T02:51:19.598Z,99618.06
2022-09-30T02:56:48.944Z,99618.57
2022-09-30T03:01:52.247Z,99620.80
2022-09-30T03:06:55.820Z,99635.21
2022-09-30T03:12:33.111Z,99642.92
2022-09-30T03:17:45.445Z,99645.30
2022-09-30T03:23:27.766Z,99649.58
2022-09-30T03:28:38.920Z,99651.10
2022-09-30T03:33:52.687Z,99652.33
2022-09-30T03:39:03.062Z,99655.88
2022-09-30T03:44:15.212Z,99664.41
2022-09-30T03:49:28.627Z,99662.61
2022-09-30T03:54:32.450Z,99664.44
2022-09-30T03:59:35.686Z,99669.08
2022-09-30T04:04:43.027Z,99672.00
2022-09-30T04:09:46.361Z,99677.21
2022-09-30T04:14:49.615Z,99670.71
2022-09-30T04:19:53.248Z,99669.44
2022-09-30T04:24:56.554Z,99670.48
2022-09-30T04:29:59.825Z,99672.48
2022-09-30T04:35:03.882Z,99666.20
2022-09-30T04:40:07.552Z,99666.81
2022-09-30T04:45:13.045Z,99671.41
2022-09-30T04:50:16.471Z,99678.21
2022-09-30T04:55:19.924Z,99690.96
2022-09-30T05:00:23.243Z,99692.94
2022-09-30T05:05:26.492Z,99695.98
2022-09-30T05:10:30.273Z,99705.16
2022-09-30T05:15:35.316Z,99711.59
2022-09-30T05:20:38.594Z,99723.02
2022-09-30T05:25:42.404Z,99742.53
2022-09-30T05:30:47.047Z,99757.02
2022-09-30T05:35:50.437Z,99757.09
2022-09-30T05:40:54.809Z,99754.64
2022-09-30T05:45:58.090Z,99759.02
2022-09-30T05:51:01.873Z,99758.91
2022-09-30T05:56:12.303Z,99762.11
2022-09-30T06:01:17.414Z,99768.92
2022-09-30T06:06:21.899Z,99759.61
2022-09-30T06:11:25.536Z,99765.84
2022-09-30T06:16:30.086Z,99781.56
2022-09-30T06:21:33.405Z,99799.49
2022-09-30T06:26:36.739Z,99802.17
2022-09-30T06:31:40.161Z,99805.72
2022-09-30T06:36:43.539Z,99804.00
2022-09-30T06:41:47.051Z,99803.13
2022-09-30T06:46:55.997Z,99812.33
2022-09-30T06:52:00.802Z,99819.89
2022-09-30T06:57:04.031Z,99822.27
2022-09-30T07:02:07.238Z,99824.50
2022-09-30T07:07:11.451Z,99822.41
2022-09-30T07:12:14.707Z,99828.68
2022-09-30T07:17:17.986Z,99828.32
2022-09-30T07:22:28.313Z,99834.80
2022-09-30T07:27:33.013Z,99836.74
2022-09-30T07:32:37.013Z,99847.91
2022-09-30T07:37:40.271Z,99858.48
2022-09-30T07:42:46.233Z,99862.73
2022-09-30T07:47:53.730Z,99867.23
2022-09-30T07:52:57.975Z,99869.70
2022-09-30T07:58:02.188Z,99878.27
2022-09-30T08:03:05.661Z,99881.82
2022-09-30T08:08:09.090Z,99888.85
2022-09-30T08:13:14.266Z,99888.46
2022-09-30T08:18:19.291Z,99888.08
2022-09-30T08:23:23.170Z,99887.73
2022-09-30T08:28:26.401Z,99894.48
2022-09-30T08:33:29.664Z,99896.62
2022-09-30T08:38:33.778Z,99895.53
2022-09-30T08:44:05.178Z,99898.02
2022-09-30T08:49:54.578Z,99905.98
2022-09-30T08:54:58.175Z,99904.19
2022-09-30T09:00:10.501Z,99905.35
2022-09-30T09:05:23.728Z,99920.60
2022-09-30T09:10:28.281Z,99921.77
2022-09-30T09:15:44.098Z,99923.61
2022-09-30T09:20:54.347Z,99926.91
2022-09-30T09:25:59.100Z,99930.66
2022-09-30T09:31:04.521Z,99926.49
2022-09-30T09:36:49.843Z,99925.00
2022-09-30T09:42:05.103Z,99926.16
2022-09-30T09:47:17.630Z,99929.04
2022-09-30T09:52:40.196Z,99933.82
2022-09-30T09:57:43.519Z,99938.91
2022-09-30T10:02:59.535Z,99938.08
2022-09-30T10:08:16.374Z,99931.66
2022-09-30T10:13:27.060Z,99943.88
2022-09-30T10:18:38.029Z,99942.58
2022-09-30T10:23:41.611Z,99943.92
2022-09-30T10:28:55.378Z,99943.02
2022-09-30T10:34:17.520Z,99943.80
2022-09-30T10:39:34.857Z,99947.04
2022-09-30T10:44:55.749Z,99942.73
2022-09-30T10:50:07.321Z,99939.11
2022-09-30T10:55:19.875Z,99943.06
2022-09-30T11:00:25.557Z,99942.33
2022-09-30T11:05:47.828Z,99947.59
2022-09-30T11:11:08.842Z,99948.48
2022-09-30T11:16:19.577Z,99930.73
2022-09-30T11:21:28.102Z,99922.54
2022-09-30T11:26:54.080Z,99921.95
2022-09-30T11:32:19.693Z,99926.25
2022-09-30T11:37:42.463Z,99930.21
2022-09-30T11:43:17.012Z,99934.95
2022-09-30T11:48:43.033Z,99942.73
2022-09-30T11:53:58.668Z,99945.54
2022-09-30T11:59:06.982Z,99946.85
2022-09-30T12:04:21.297Z,99942.40
2022-09-30T12:10:01.817Z,99936.63
2022-09-30T12:15:16.051Z,99937.91
2022-09-30T12:20:39.878Z,99948.61
2022-09-30T12:25:56.842Z,99952.27
2022-09-30T12:31:54.866Z,99963.44
2022-09-30T12:37:58.615Z,99971.21
2022-09-30T12:43:43.226Z,99970.80
2022-09-30T12:49:08.055Z,99964.14
2022-09-30T12:54:30.623Z,99965.24
2022-09-30T12:59:45.279Z,99960.41
2022-09-30T13:05:24.500Z,99958.83
2022-09-30T13:10:36.999Z,99956.80
2022-09-30T13:15:56.730Z,99956.13
2022-09-30T13:21:05.979Z,99957.94
2022-09-30T13:26:27.985Z,99954.48
2022-09-30T13:31:52.783Z,99956.15
2022-09-30T13:37:05.767Z,99950.89
2022-09-30T13:42:21.802Z,99947.59
2022-09-30T13:47:45.470Z,99954.05
2022-09-30T13:53:23.323Z,99950.92
2022-09-30T13:58:56.408Z,99961.50
2022-09-30T14:04:12.338Z,99956.42
2022-09-30T14:09:42.347Z,99961.88
2022-09-30T14:15:09.113Z,99966.21
2022-09-30T14:20:32.235Z,99962.11
2022-09-30T14:26:01.533Z,99955.31
2022-09-30T14:36:34.339Z,99958.73
2022-09-30T14:42:03.470Z,99975.06
2022-09-30T14:47:17.193Z,99971.19
2022-09-30T14:52:53.577Z,99967.39
2022-09-30T14:58:21.872Z,99967.96
2022-09-30T15:04:02.399Z,99967.20
2022-09-30T15:09:18.192Z,99978.14
2022-09-30T15:14:27.160Z,99990.57
2022-09-30T15:19:44.853Z,99996.00
2022-09-30T15:24:49.257Z,99979.42
2022-09-30T15:29:56.606Z,99981.23
2022-09-30T15:35:11.723Z,99987.17
2022-09-30T15:40:39.611Z,99990.77
2022-09-30T15:45:44.563Z,100006.09
2022-09-30T15:50:50.032Z,100017.13
2022-09-30T15:56:17.105Z,100018.17
2022-09-30T16:01:46.618Z,100011.40
2022-09-30T16:07:32.230Z,99998.27
2022-09-30T16:12:41.823Z,100003.64
2022-09-30T16:18:02.658Z,100012.89
2022-09-30T16:23:13.159Z,100014.90
2022-09-30T16:28:18.641Z,100027.84
2022-09-30T16:33:22.348Z,100035.35
2022-09-30T16:38:30.684Z,100050.66
2022-09-30T16:43:36.714Z,100049.96
2022-09-30T16:48:40.097Z,100053.04
2022-09-30T16:53:48.133Z,100057.10
2022-09-30T16:58:51.765Z,100054.61
2022-09-30T17:04:01.206Z,100055.40
2022-09-30T17:09:10.213Z,100059.63
2022-09-30T17:14:19.269Z,100064.91
2022-09-30T17:19:25.105Z,100071.24
2022-09-30T17:24:32.757Z,100071.39
2022-09-30T17:29:44.392Z,100078.06
2022-09-30T17:34:47.852Z,100070.59
2022-09-30T17:39:55.749Z,100088.38
2022-09-30T17:45:02.622Z,100090.48
2022-09-30T17:50:16.362Z,100097.29
2022-09-30T17:55:34.391Z,100094.28
2022-09-30T18:00:44.192Z,100080.65
2022-09-30T18:06:01.494Z,100088.95
2022-09-30T18:11:13.875Z,100103.96
2022-09-30T18:16:19.058Z,100110.85
2022-09-30T18:21:24.493Z,100112.52
2022-09-30T18:26:46.392Z,100117.30
2022-09-30T18:31:53.031Z,100114.40
2022-09-30T18:36:57.103Z,100113.36
2022-09-30T18:42:07.255Z,100106.44
2022-09-30T18:47:18.537Z,100113.81
2022-09-30T18:52:24.746Z,100111.05
2022-09-30T18:57:36.148Z,100113.52
2022-09-30T19:02:48.952Z,100116.77
2022-09-30T19:07:57.531Z,100122.94
2022-09-30T19:13:18.040Z,100131.11
2022-09-30T19:18:26.052Z,100124.23
2022-09-30T19:23:33.207Z,100121.55
2022-09-30T19:28:39.707Z,100123.48
2022-09-30T19:33:56.004Z,100121.00
2022-09-30T19:39:11.221Z,100115.20
2022-09-30T19:44:20.552Z,100103.40
2022-09-30T19:49:26.196Z,100095.02
2022-09-30T19:54:40.980Z,100093.81
2022-09-30T19:59:45.895Z,100100.08
2022-09-30T20:04:54.745Z,100100.83
2022-09-30T20:10:05.298Z,100096.83
2022-09-30T20:15:34.532Z,100096.94
2022-09-30T20:20:49.957Z,100105.23
2022-09-30T20:25:57.402Z,100117.13
2022-09-30T20:31:12.027Z,100120.13
2022-09-30T20:36:20.577Z,100108.90
2022-09-30T20:41:37.531Z,100104.38
2022-09-30T20:46:42.790Z,100106.95
2022-09-30T20:52:14.232Z,100098.38
2022-09-30T20:57:19.422Z,100104.52
2022-09-30T21:02:27.801Z,100105.19
2022-09-30T21:07:31.421Z,100112.15
2022-09-30T21:12:44.787Z,100111.55
2022-09-30T21:18:04.963Z,100104.02
2022-09-30T21:23:09.828Z,100097.77
2022-09-30T21:28:16.108Z,100096.48
2022-09-30T21:33:26.237Z,100097.80
2022-09-30T21:38:30.894Z,100090.72
2022-09-30T21:43:38.305Z,100094.16
2022-09-30T21:48:46.916Z,100094.05
2022-09-30T21:53:52.287Z,100085.55
2022-09-30T21:58:58.432Z,100082.91
2022-09-30T22:04:01.856Z,100084.44
2022-09-30T22:09:16.270Z,100083.11
2022-09-30T22:14:20.208Z,100083.25
2022-09-30T22:19:24.583Z,100085.19
2022-09-30T22:24:28.385Z,100089.40
2022-09-30T22:29:32.812Z,100084.48
2022-09-30T22:34:57.262Z,100079.17
2022-09-30T22:40:01.150Z,100075.85
2022-09-30T22:45:06.722Z,100081.69
2022-09-30T22:50:10.043Z,100083.17
2022-09-30T22:55:15.176Z,100075.11
2022-09-30T23:00:19.371Z,100084.17
2022-09-30T23:05:29.033Z,100087.48
2022-09-30T23:10:33.053Z,100085.92
2022-09-30T23:15:37.230Z,100082.54
2022-09-30T23:20:54.298Z,100088.64
2022-09-30T23:26:08.843Z,100085.52
2022-09-30T23:31:18.682Z,100084.86
2022-09-30T23:36:27.495Z,100087.48
2022-09-30T23:41:37.017Z,100088.80
2022-09-30T23:47:01.493Z,100094.81
2022-09-30T23:52:13.770Z,100093.53
2022-09-30T23:57:25.891Z,100095.59
